createdAt,value
2023-03-30T00:02:22.445Z,97642.63
2023-03-30T00:04:49.763Z,97638.91
2023-03-30T00:07:16.154Z,97641.84
2023-03-30T00:09:43.497Z,97632.28
2023-03-30T00:12:10.295Z,97625.09
2023-03-30T00:14:37.542Z,97608.34
2023-03-30T00:17:04.455Z,97607.78
2023-03-30T00:19:31.153Z,97619.50
2023-03-30T00:21:57.498Z,97625.63
2023-03-30T00:24:23.824Z,97628.56
2023-03-30T00:26:50.190Z,97625.13
2023-03-30T00:29:16.954Z,97615.56
2023-03-30T00:31:43.468Z,97610.72
2023-03-30T00:34:10.196Z,97613.41
2023-03-30T00:36:37.222Z,97609.94
2023-03-30T00:39:06.465Z,97609.16
2023-03-30T00:41:35.480Z,97605.94
2023-03-30T00:44:09.389Z,97585.75
2023-03-30T00:46:36.002Z,97594.81
2023-03-30T00:49:06.299Z,97589.47
2023-03-30T00:51:33.280Z,97584.16
2023-03-30T00:54:01.008Z,97584.69
2023-03-30T00:56:28.452Z,97587.34
2023-03-30T00:58:55.140Z,97576.22
2023-03-30T01:01:41.510Z,97575.13
2023-03-30T01:04:08.279Z,97566.66
2023-03-30T01:06:34.697Z,97568.47
2023-03-30T01:09:01.017Z,97550.94
2023-03-30T01:11:27.411Z,97549.34
2023-03-30T01:13:58.383Z,97556.53
2023-03-30T01:16:43.986Z,97550.44
2023-03-30T01:19:16.133Z,97543.53
2023-03-30T01:21:55.607Z,97543.00
2023-03-30T01:24:21.937Z,97539.53
2023-03-30T01:26:53.403Z,97534.50
2023-03-30T01:29:39.341Z,97529.72
2023-03-30T01:32:17.531Z,97528.66
2023-03-30T01:34:48.155Z,97526.56
2023-03-30T01:37:22.193Z,97520.44
2023-03-30T01:39:54.186Z,97509.81
2023-03-30T01:42:32.793Z,97515.38
2023-03-30T01:45:05.324Z,97515.66
2023-03-30T01:47:36.920Z,97508.78
2023-03-30T01:50:09.112Z,97517.00
2023-03-30T01:52:38.763Z,97508.22
2023-03-30T01:55:08.681Z,97498.69
2023-03-30T01:57:36.478Z,97485.38
2023-03-30T02:00:27.664Z,97483.78
2023-03-30T02:02:58.298Z,97481.09
2023-03-30T02:05:25.137Z,97484.78
2023-03-30T02:08:00.399Z,97488.44
2023-03-30T02:10:28.112Z,97478.84
2023-03-30T02:12:54.949Z,97470.03
2023-03-30T02:15:21.276Z,97473.19
2023-03-30T02:17:48.328Z,97460.66
2023-03-30T02:20:17.671Z,97455.28
2023-03-30T02:22:48.127Z,97454.75
2023-03-30T02:25:14.505Z,97452.06
2023-03-30T02:27:41.981Z,97445.16
2023-03-30T02:30:08.969Z,97447.53
2023-03-30T02:32:40.503Z,97448.34
2023-03-30T02:35:15.977Z,97442.22
2023-03-30T02:37:51.602Z,97439.84
2023-03-30T02:40:24.280Z,97429.22
2023-03-30T02:42:59.892Z,97439.53
2023-03-30T02:45:44.318Z,97447.19
2023-03-30T02:48:19.668Z,97445.28
2023-03-30T02:51:04.658Z,97447.09
2023-03-30T02:53:54.500Z,97447.09
2023-03-30T02:56:24.725Z,97453.22
2023-03-30T02:58:56.609Z,97432.41
2023-03-30T03:01:33.950Z,97441.47
2023-03-30T03:04:00.274Z,97445.22
2023-03-30T03:06:26.628Z,97432.22
2023-03-30T03:08:53.350Z,97439.13
2023-03-30T03:11:19.674Z,97443.91
2023-03-30T03:13:46.070Z,97430.59
2023-03-30T03:16:12.880Z,97426.88
2023-03-30T03:18:41.582Z,97424.22
2023-03-30T03:21:11.251Z,97425.81
2023-03-30T03:23:37.780Z,97422.31
2023-03-30T03:26:04.238Z,97418.25
2023-03-30T03:28:30.955Z,97418.78
2023-03-30T03:30:58.656Z,97415.34
2023-03-30T03:33:25.810Z,97430.25
2023-03-30T03:35:55.049Z,97404.69
2023-03-30T03:38:24.376Z,97393.81
2023-03-30T03:40:51.341Z,97396.47
2023-03-30T03:43:17.914Z,97388.47
2023-03-30T03:45:47.215Z,97391.94
2023-03-30T03:48:14.053Z,97375.41
2023-03-30T03:50:40.386Z,97380.56
2023-03-30T03:53:06.813Z,97364.53
2023-03-30T03:55:35.266Z,97355.44
2023-03-30T03:58:02.119Z,97364.22
2023-03-30T04:00:29.250Z,97365.31
2023-03-30T04:02:55.738Z,97361.06
2023-03-30T04:05:22.092Z,97348.84
2023-03-30T04:07:48.422Z,97349.41
2023-03-30T04:10:14.875Z,97345.16
2023-03-30T04:12:41.185Z,97350.47
2023-03-30T04:15:07.803Z,97340.91
2023-03-30T04:17:35.177Z,97322.59
2023-03-30T04:20:02.760Z,97336.16
2023-03-30T04:22:30.997Z,97333.50
2023-03-30T04:24:57.335Z,97338.31
2023-03-30T04:27:25.896Z,97343.63
2023-03-30T04:29:52.241Z,97337.50
2023-03-30T04:32:20.821Z,97335.13
2023-03-30T04:34:47.407Z,97340.44
2023-03-30T04:37:18.486Z,97360.16
2023-03-30T04:39:45.141Z,97362.31
2023-03-30T04:42:14.209Z,97349.28
2023-03-30T04:44:40.944Z,97359.16
2023-03-30T04:47:07.546Z,97344.25
2023-03-30T04:49:33.863Z,97359.09
2023-03-30T04:52:00.520Z,97348.31
2023-03-30T04:54:27.468Z,97351.44
2023-03-30T04:56:53.867Z,97339.34
2023-03-30T04:59:20.238Z,97335.38
2023-03-30T05:01:46.628Z,97334.28
2023-03-30T05:04:14.189Z,97332.41
2023-03-30T05:06:42.006Z,97331.63
2023-03-30T05:09:08.350Z,97323.38
2023-03-30T05:11:35.051Z,97334.88
2023-03-30T05:14:01.364Z,97332.44
2023-03-30T05:16:27.836Z,97333.22
2023-03-30T05:18:54.196Z,97326.03
2023-03-30T05:21:20.551Z,97327.41
2023-03-30T05:23:46.865Z,97328.75
2023-03-30T05:26:13.318Z,97323.72
2023-03-30T05:28:40.261Z,97329.06
2023-03-30T05:31:06.881Z,97331.22
2023-03-30T05:33:33.805Z,97330.41
2023-03-30T05:36:00.301Z,97328.09
2023-03-30T05:38:26.671Z,97336.59
2023-03-30T05:40:53.501Z,97350.19
2023-03-30T05:43:19.837Z,97334.50
2023-03-30T05:45:47.652Z,97332.94
2023-03-30T05:48:14.148Z,97328.66
2023-03-30T05:50:41.358Z,97327.06
2023-03-30T05:53:07.901Z,97320.47
2023-03-30T05:55:34.446Z,97333.00
2023-03-30T05:58:00.762Z,97332.47
2023-03-30T06:00:28.871Z,97323.91
2023-03-30T06:02:55.328Z,97324.66
2023-03-30T06:05:22.485Z,97324.53
2023-03-30T06:07:49.633Z,97321.56
2023-03-30T06:10:16.359Z,97312.13
2023-03-30T06:12:42.754Z,97309.97
2023-03-30T06:15:09.788Z,97314.22
2023-03-30T06:17:36.993Z,97305.63
2023-03-30T06:20:08.443Z,97302.97
2023-03-30T06:22:35.086Z,97300.91
2023-03-30T06:25:01.769Z,97309.97
2023-03-30T06:27:31.837Z,97298.47
2023-03-30T06:29:58.325Z,97305.84
2023-03-30T06:32:24.898Z,97307.72
2023-03-30T06:34:52.495Z,97309.03
2023-03-30T06:37:19.443Z,97312.50
2023-03-30T06:39:45.973Z,97313.59
2023-03-30T06:42:14.340Z,97327.16
2023-03-30T06:44:41.214Z,97317.03
2023-03-30T06:47:07.640Z,97319.47
2023-03-30T06:49:34.346Z,97322.94
2023-03-30T06:52:04.358Z,97330.34
2023-03-30T06:54:32.348Z,97316.72
2023-03-30T06:56:58.720Z,97321.84
2023-03-30T06:59:25.110Z,97320.03
2023-03-30T07:01:51.658Z,97307.56
2023-03-30T07:04:18.731Z,97304.41
2023-03-30T07:06:45.225Z,97315.31
2023-03-30T07:09:12.894Z,97308.75
2023-03-30T07:11:39.224Z,97312.66
2023-03-30T07:14:05.992Z,97308.59
2023-03-30T07:16:32.721Z,97305.06
2023-03-30T07:18:59.600Z,97300.53
2023-03-30T07:21:26.395Z,97294.94
2023-03-30T07:23:53.507Z,97302.97
2023-03-30T07:26:19.917Z,97302.41
2023-03-30T07:28:46.408Z,97308.53
2023-03-30T07:31:13.828Z,97314.94
2023-03-30T07:33:41.005Z,97314.16
2023-03-30T07:36:10.768Z,97314.72
2023-03-30T07:38:37.811Z,97307.09
2023-03-30T07:41:08.318Z,97305.50
2023-03-30T07:43:34.744Z,97307.81
2023-03-30T07:46:01.540Z,97304.72
2023-03-30T07:48:27.921Z,97318.63
2023-03-30T07:51:04.335Z,97319.78
2023-03-30T07:53:31.059Z,97319.78
2023-03-30T07:55:57.373Z,97319.25
2023-03-30T07:58:23.708Z,97320.16
2023-03-30T08:00:50.610Z,97326.03
2023-03-30T08:03:18.080Z,97327.41
2023-03-30T08:05:46.154Z,97327.91
2023-03-30T08:08:13.779Z,97324.72
2023-03-30T08:10:40.110Z,97325.72
2023-03-30T08:13:06.600Z,97324.66
2023-03-30T08:15:33.243Z,97311.63
2023-03-30T08:18:04.093Z,97313.63
2023-03-30T08:20:31.150Z,97315.16
2023-03-30T08:22:57.901Z,97321.19
2023-03-30T08:25:24.274Z,97312.13
2023-03-30T08:27:51.013Z,97312.72
2023-03-30T08:30:18.884Z,97302.97
2023-03-30T08:32:45.627Z,97307.25
2023-03-30T08:35:12.284Z,97305.94
2023-03-30T08:37:39.183Z,97316.09
2023-03-30T08:40:11.965Z,97320.13
2023-03-30T08:42:55.665Z,97314.78
2023-03-30T08:45:22.291Z,97314.22
2023-03-30T08:47:56.558Z,97319.31
2023-03-30T08:50:28.594Z,97317.53
2023-03-30T08:52:55.408Z,97321.28
2023-03-30T08:55:24.179Z,97315.44
2023-03-30T08:57:59.644Z,97308.53
2023-03-30T09:00:35.092Z,97311.47
2023-03-30T09:03:21.661Z,97301.91
2023-03-30T09:05:49.514Z,97301.13
2023-03-30T09:08:20.195Z,97314.94
2023-03-30T09:10:48.016Z,97307.50
2023-03-30T09:13:14.878Z,97302.47
2023-03-30T09:16:04.281Z,97296.06
2023-03-30T09:18:31.203Z,97297.94
2023-03-30T09:20:58.564Z,97302.47
2023-03-30T09:23:25.861Z,97305.94
2023-03-30T09:26:03.092Z,97301.38
2023-03-30T09:28:48.509Z,97289.72
2023-03-30T09:31:16.071Z,97285.13
2023-03-30T09:34:00.945Z,97294.19
2023-03-30T09:36:31.374Z,97294.38
2023-03-30T09:38:57.691Z,97292.25
2023-03-30T09:41:44.474Z,97295.44
2023-03-30T09:44:13.383Z,97300.75
2023-03-30T09:46:40.361Z,97305.31
2023-03-30T09:49:14.277Z,97318.63
2023-03-30T09:51:52.338Z,97313.94
2023-03-30T09:54:18.675Z,97316.03
2023-03-30T09:56:47.863Z,97318.47
2023-03-30T09:59:22.730Z,97300.91
2023-03-30T10:01:50.582Z,97313.94
2023-03-30T10:04:18.272Z,97311.44
2023-03-30T10:06:47.465Z,97309.03
2023-03-30T10:09:14.265Z,97320.41
2023-03-30T10:11:46.271Z,97318.22
2023-03-30T10:14:23.714Z,97349.09
2023-03-30T10:16:50.327Z,97371.78
2023-03-30T10:19:18.133Z,97370.47
2023-03-30T10:21:47.126Z,97371.06
2023-03-30T10:24:23.126Z,97384.41
2023-03-30T10:26:53.703Z,97387.84
2023-03-30T10:29:22.877Z,97382.81
2023-03-30T10:31:53.608Z,97383.84
2023-03-30T10:34:29.392Z,97375.34
2023-03-30T10:36:56.512Z,97370.03
2023-03-30T10:39:23.823Z,97370.81
2023-03-30T10:41:50.825Z,97372.69
2023-03-30T10:44:24.166Z,97375.66
2023-03-30T10:46:55.388Z,97386.56
2023-03-30T10:49:27.849Z,97358.34
2023-03-30T10:52:06.099Z,97364.75
2023-03-30T10:54:55.560Z,97370.34
2023-03-30T10:57:24.856Z,97387.69
2023-03-30T10:59:59.925Z,97381.84
2023-03-30T11:02:35.791Z,97391.94
2023-03-30T11:05:04.452Z,97384.81
2023-03-30T11:07:33.574Z,97384.31
2023-03-30T11:10:08.337Z,97373.91
2023-03-30T11:12:36.929Z,97377.97
2023-03-30T11:15:08.064Z,97381.72
2023-03-30T11:17:36.306Z,97374.78
2023-03-30T11:20:29.162Z,97371.84
2023-03-30T11:23:04.261Z,97373.66
2023-03-30T11:25:32.415Z,97362.66
2023-03-30T11:28:29.642Z,97354.66
2023-03-30T11:30:56.686Z,97353.09
2023-03-30T11:33:27.107Z,97362.66
2023-03-30T11:35:53.862Z,97359.94
2023-03-30T11:38:35.312Z,97352.72
2023-03-30T11:41:04.397Z,97342.31
2023-03-30T11:43:30.674Z,97352.97
2023-03-30T11:46:03.307Z,97361.50
2023-03-30T11:48:38.228Z,97361.81
2023-03-30T11:51:10.732Z,97357.25
2023-03-30T11:53:49.242Z,97354.09
2023-03-30T11:56:22.000Z,97358.91
2023-03-30T11:58:51.783Z,97348.06
2023-03-30T12:01:40.727Z,97352.28
2023-03-30T12:04:11.366Z,97352.56
2023-03-30T12:06:41.839Z,97341.13
2023-03-30T12:09:20.331Z,97349.88
2023-03-30T12:11:51.170Z,97352.66
2023-03-30T12:14:32.916Z,97369.50
2023-03-30T12:16:59.924Z,97372.94
2023-03-30T12:19:28.201Z,97378.00
2023-03-30T12:22:10.892Z,97370.88
2023-03-30T12:24:56.204Z,97383.66
2023-03-30T12:27:22.640Z,97386.63
2023-03-30T12:32:22.454Z,97368.78
2023-03-30T12:34:48.899Z,97373.53
2023-03-30T12:37:34.609Z,97374.81
2023-03-30T12:40:06.711Z,97379.38
2023-03-30T12:42:36.472Z,97381.22
2023-03-30T12:45:16.560Z,97383.91
2023-03-30T12:48:03.034Z,97369.28
2023-03-30T12:50:29.509Z,97363.44
2023-03-30T12:53:11.597Z,97371.44
2023-03-30T12:55:43.736Z,97380.78
2023-03-30T12:58:22.090Z,97371.66
2023-03-30T13:00:51.708Z,97364.16
2023-03-30T13:03:18.342Z,97362.00
2023-03-30T13:05:44.912Z,97370.47
2023-03-30T13:08:19.337Z,97369.13
2023-03-30T13:10:45.669Z,97366.69
2023-03-30T13:13:22.802Z,97366.69
2023-03-30T13:15:50.315Z,97377.34
2023-03-30T13:18:16.552Z,97363.81
2023-03-30T13:20:42.833Z,97361.94
2023-03-30T13:23:09.068Z,97360.06
2023-03-30T13:25:41.330Z,97361.16
2023-03-30T13:28:26.551Z,97356.91
2023-03-30T13:30:52.918Z,97375.25
2023-03-30T13:33:19.266Z,97352.38
2023-03-30T13:35:46.094Z,97367.56
2023-03-30T13:38:30.212Z,97366.75
2023-03-30T13:41:05.085Z,97361.44
2023-03-30T13:43:39.290Z,97371.56
2023-03-30T13:46:38.018Z,97385.97
2023-03-30T13:49:07.898Z,97385.47
2023-03-30T13:51:34.262Z,97406.50
2023-03-30T13:54:05.277Z,97393.16
2023-03-30T13:56:32.373Z,97395.84
2023-03-30T13:59:06.440Z,97390.81
2023-03-30T14:01:32.911Z,97400.59
2023-03-30T14:04:00.722Z,97406.78
2023-03-30T14:06:27.824Z,97406.78
2023-03-30T14:09:06.272Z,97412.34
2023-03-30T14:11:39.691Z,97408.88
2023-03-30T14:14:06.569Z,97413.44
2023-03-30T14:16:34.123Z,97404.66
2023-03-30T14:19:08.344Z,97410.25
2023-03-30T14:21:34.735Z,97394.50
2023-03-30T14:24:01.264Z,97395.28
2023-03-30T14:26:28.094Z,97405.69
2023-03-30T14:28:55.563Z,97390.81
2023-03-30T14:31:22.177Z,97383.84
2023-03-30T14:33:48.659Z,97383.84
2023-03-30T14:36:16.126Z,97393.69
2023-03-30T14:38:43.519Z,97394.00
2023-03-30T14:41:23.819Z,97399.63
2023-03-30T14:43:54.787Z,97403.34
2023-03-30T14:46:21.206Z,97452.34
2023-03-30T14:48:49.312Z,97469.13
2023-03-30T14:51:23.554Z,97458.75
2023-03-30T14:53:50.791Z,97468.88
2023-03-30T14:56:17.315Z,97492.06
2023-03-30T14:58:43.625Z,97492.34
2023-03-30T15:01:10.654Z,97496.09
2023-03-30T15:03:37.232Z,97502.50
2023-03-30T15:06:04.056Z,97503.56
2023-03-30T15:08:31.273Z,97498.75
2023-03-30T15:10:58.523Z,97486.72
2023-03-30T15:13:26.382Z,97468.38
2023-03-30T15:15:54.236Z,97465.22
2023-03-30T15:18:21.754Z,97463.56
2023-03-30T15:20:48.068Z,97457.44
2023-03-30T15:23:14.408Z,97454.78
2023-03-30T15:25:40.757Z,97457.72
2023-03-30T15:28:07.806Z,97456.41
2023-03-30T15:30:46.380Z,97456.69
2023-03-30T15:33:24.867Z,97462.31
2023-03-30T15:35:52.211Z,97468.16
2023-03-30T15:38:18.878Z,97463.06
2023-03-30T15:40:50.004Z,97468.38
2023-03-30T15:43:26.817Z,97466.00
2023-03-30T15:45:55.973Z,97458.22
2023-03-30T15:48:26.066Z,97461.72
2023-03-30T15:51:16.185Z,97460.09
2023-03-30T15:54:02.774Z,97459.31
2023-03-30T15:56:34.132Z,97451.63
2023-03-30T15:59:01.514Z,97455.91
2023-03-30T16:01:28.259Z,97453.53
2023-03-30T16:03:55.338Z,97448.47
2023-03-30T16:06:21.752Z,97440.50
2023-03-30T16:08:48.285Z,97442.34
2023-03-30T16:11:16.131Z,97440.78
2023-03-30T16:13:42.893Z,97431.22
2023-03-30T16:16:10.890Z,97438.91
2023-03-30T16:18:37.357Z,97440.78
2023-03-30T16:21:05.281Z,97449.56
2023-03-30T16:23:31.797Z,97447.19
2023-03-30T16:25:58.309Z,97445.31
2023-03-30T16:28:24.623Z,97453.59
2023-03-30T16:30:51.886Z,97437.63
2023-03-30T16:33:18.293Z,97443.72
2023-03-30T16:35:44.711Z,97439.50
2023-03-30T16:38:12.435Z,97433.34
2023-03-30T16:40:40.893Z,97437.09
2023-03-30T16:43:09.139Z,97433.63
2023-03-30T16:45:35.541Z,97432.56
2023-03-30T16:48:01.960Z,97435.22
2023-03-30T16:50:41.220Z,97442.69
2023-03-30T16:53:08.737Z,97442.41
2023-03-30T16:55:35.250Z,97446.66
2023-03-30T16:58:01.569Z,97445.59
2023-03-30T17:00:31.425Z,97447.97
2023-03-30T17:02:57.826Z,97456.75
2023-03-30T17:05:24.437Z,97454.88
2023-03-30T17:07:54.334Z,97457.84
2023-03-30T17:10:24.868Z,97448.25
2023-03-30T17:12:52.153Z,97457.31
2023-03-30T17:15:18.535Z,97455.72
2023-03-30T17:17:44.935Z,97464.78
2023-03-30T17:20:18.440Z,97463.75
2023-03-30T17:22:44.757Z,97471.19
2023-03-30T17:25:11.118Z,97467.22
2023-03-30T17:27:37.940Z,97458.19
2023-03-30T17:30:05.314Z,97471.75
2023-03-30T17:32:31.679Z,97469.88
2023-03-30T17:34:58.053Z,97470.97
2023-03-30T17:37:24.366Z,97469.38
2023-03-30T17:39:50.899Z,97486.13
2023-03-30T17:42:17.243Z,97497.06
2023-03-30T17:44:43.577Z,97513.06
2023-03-30T17:47:09.882Z,97514.91
2023-03-30T17:49:36.859Z,97510.16
2023-03-30T17:52:03.226Z,97507.75
2023-03-30T17:54:30.655Z,97492.06
2023-03-30T17:56:57.263Z,97498.47
2023-03-30T17:59:23.645Z,97490.97
2023-03-30T18:01:49.968Z,97505.41
2023-03-30T18:04:16.347Z,97503.78
2023-03-30T18:06:42.962Z,97505.09
2023-03-30T18:09:14.278Z,97511.44
2023-03-30T18:11:40.801Z,97515.56
2023-03-30T18:14:08.191Z,97512.25
2023-03-30T18:16:37.375Z,97506.75
2023-03-30T18:19:03.779Z,97506.56
2023-03-30T18:21:30.232Z,97506.41
2023-03-30T18:23:56.964Z,97495.03
2023-03-30T18:26:23.329Z,97493.84
2023-03-30T18:28:49.648Z,97488.97
2023-03-30T18:31:16.381Z,97494.16
2023-03-30T18:33:42.707Z,97498.31
2023-03-30T18:36:12.915Z,97482.44
2023-03-30T18:38:39.656Z,97488.72
2023-03-30T18:41:06.550Z,97488.81
2023-03-30T18:43:33.477Z,97493.28
2023-03-30T18:46:02.128Z,97490.53
2023-03-30T18:48:28.896Z,97508.09
2023-03-30T18:50:55.306Z,97493.88
2023-03-30T18:53:25.340Z,97503.41
2023-03-30T18:55:52.750Z,97504.41
2023-03-30T18:58:22.994Z,97495.81
2023-03-30T19:00:49.557Z,97502.34
2023-03-30T19:03:16.927Z,97499.69
2023-03-30T19:05:43.386Z,97504.75
2023-03-30T19:08:13.494Z,97510.28
2023-03-30T19:10:40.305Z,97505.81
2023-03-30T19:13:07.017Z,97510.09
2023-03-30T19:15:36.365Z,97503.16
2023-03-30T19:18:03.050Z,97510.59
2023-03-30T19:20:29.715Z,97511.69
2023-03-30T19:22:56.390Z,97512.47
2023-03-30T19:25:22.982Z,97522.34
2023-03-30T19:28:01.714Z,97520.19
2023-03-30T19:30:29.627Z,97512.06
2023-03-30T19:32:57.267Z,97511.41
2023-03-30T19:35:23.960Z,97507.84
2023-03-30T19:37:50.314Z,97503.59
2023-03-30T19:40:16.771Z,97511.00
2023-03-30T19:42:43.597Z,97513.41
2023-03-30T19:45:09.905Z,97510.22
2023-03-30T19:47:36.321Z,97519.03
2023-03-30T19:50:04.658Z,97513.19
2023-03-30T19:52:30.990Z,97515.88
2023-03-30T19:54:57.300Z,97520.13
2023-03-30T19:57:23.649Z,97513.69
2023-03-30T19:59:50.214Z,97513.69
2023-03-30T20:02:16.902Z,97513.69
2023-03-30T20:04:44.482Z,97503.00
2023-03-30T20:07:11.962Z,97506.19
2023-03-30T20:09:38.383Z,97492.63
2023-03-30T20:12:04.890Z,97493.41
2023-03-30T20:14:31.448Z,97499.06
2023-03-30T20:16:58.322Z,97490.25
2023-03-30T20:19:29.377Z,97486.47
2023-03-30T20:21:56.639Z,97481.63
2023-03-30T20:24:23.118Z,97488.38
2023-03-30T20:26:49.678Z,97486.69
2023-03-30T20:29:15.987Z,97473.03
2023-03-30T20:31:42.451Z,97477.97
2023-03-30T20:34:11.335Z,97472.53
2023-03-30T20:36:37.665Z,97472.03
2023-03-30T20:39:05.807Z,97466.69
2023-03-30T20:41:38.284Z,97473.34
2023-03-30T20:44:11.020Z,97467.97
2023-03-30T20:46:37.867Z,97463.41
2023-03-30T20:49:04.763Z,97469.63
2023-03-30T20:51:31.220Z,97472.31
2023-03-30T20:53:57.636Z,97467.66
2023-03-30T20:56:24.004Z,97463.53
2023-03-30T20:58:50.319Z,97466.47
2023-03-30T21:01:17.804Z,97466.00
2023-03-30T21:03:44.778Z,97461.13
2023-03-30T21:06:12.307Z,97460.66
2023-03-30T21:08:38.611Z,97455.63
2023-03-30T21:11:05.195Z,97459.34
2023-03-30T21:13:31.689Z,97448.66
2023-03-30T21:15:58.418Z,97453.22
2023-03-30T21:18:24.942Z,97448.47
2023-03-30T21:20:51.387Z,97441.25
2023-03-30T21:23:17.721Z,97446.59
2023-03-30T21:25:44.423Z,97442.63
2023-03-30T21:28:12.128Z,97444.50
2023-03-30T21:30:38.671Z,97443.72
2023-03-30T21:33:05.089Z,97436.69
2023-03-30T21:35:31.927Z,97443.31
2023-03-30T21:37:58.300Z,97435.50
2023-03-30T21:40:24.614Z,97431.56
2023-03-30T21:42:50.962Z,97425.69
2023-03-30T21:45:17.783Z,97419.09
2023-03-30T21:47:44.263Z,97419.28
2023-03-30T21:50:11.009Z,97419.97
2023-03-30T21:52:37.323Z,97414.09
2023-03-30T21:55:03.714Z,97409.88
2023-03-30T21:57:30.328Z,97405.91
2023-03-30T21:59:56.708Z,97403.25
2023-03-30T22:02:23.271Z,97406.69
2023-03-30T22:04:49.689Z,97405.63
2023-03-30T22:07:16.283Z,97397.28
2023-03-30T22:09:42.594Z,97402.16
2023-03-30T22:12:08.933Z,97402.94
2023-03-30T22:14:35.475Z,97395.53
2023-03-30T22:17:01.857Z,97404.34
2023-03-30T22:19:32.100Z,97395.06
2023-03-30T22:21:58.469Z,97399.13
2023-03-30T22:24:24.971Z,97391.69
2023-03-30T22:26:52.282Z,97388.63
2023-03-30T22:29:20.766Z,97390.41
2023-03-30T22:31:47.250Z,97376.16
2023-03-30T22:34:13.632Z,97389.88
2023-03-30T22:36:40.656Z,97375.16
2023-03-30T22:39:06.995Z,97373.75
2023-03-30T22:41:33.303Z,97375.63
2023-03-30T22:43:59.762Z,97379.72
2023-03-30T22:46:26.338Z,97375.84
2023-03-30T22:48:55.883Z,97372.69
2023-03-30T22:51:28.407Z,97375.16
2023-03-30T22:53:58.509Z,97365.34
2023-03-30T22:56:25.715Z,97376.16
2023-03-30T22:58:52.362Z,97372.28
2023-03-30T23:01:19.474Z,97362.91
2023-03-30T23:03:47.519Z,97357.81
2023-03-30T23:06:14.106Z,97361.78
2023-03-30T23:08:40.441Z,97357.44
2023-03-30T23:11:08.106Z,97352.56
2023-03-30T23:13:37.082Z,97352.25
2023-03-30T23:16:04.088Z,97361.19
2023-03-30T23:18:30.570Z,97347.22
2023-03-30T23:20:58.145Z,97349.41
2023-03-30T23:23:24.484Z,97344.88
2023-03-30T23:25:51.203Z,97343.56
2023-03-30T23:28:17.726Z,97344.66
2023-03-30T23:30:46.792Z,97333.97
2023-03-30T23:33:13.436Z,97333.59
2023-03-30T23:35:41.150Z,97334.56
2023-03-30T23:38:10.040Z,97334.09
2023-03-30T23:40:36.750Z,97328.25
2023-03-30T23:43:03.070Z,97323.41
2023-03-30T23:45:29.404Z,97326.84
2023-03-30T23:47:55.771Z,97318.16
2023-03-30T23:50:22.599Z,97326.50
2023-03-30T23:52:48.943Z,97321.31
2023-03-30T23:55:15.629Z,97325.66
2023-03-30T23:57:41.974Z,97321.94
